Time;durP1;ratioP1;P1;durP2;ratioP2;P2;SDS_P1;SDS_P2;PMS_P1;PMS_P2;Temp;Humidity;BMP_temperature;BMP_pressure;BME280_temperature;BME280_humidity;BME280_pressure;Samples;Min_cycle;Max_cycle;Signal;HPM_P1;HPM_P2
2023/08/23 00:00:49;;;;;;;1.45;1.30;;;;;;;23.11;100.00;99951.38;4838074;29;20498;-89
2023/08/23 00:03:14;;;;;;;1.00;0.90;;;;;;;23.07;100.00;99947.28;4829077;29;20512;-89
2023/08/23 00:05:43;;;;;;;1.70;1.55;;;;;;;23.05;100.00;99947.06;4837580;29;20441;-89
2023/08/23 00:08:08;;;;;;;2.63;1.80;;;;;;;23.02;100.00;99946.03;4820921;29;20042;-89
2023/08/23 00:10:34;;;;;;;2.55;1.98;;;;;;;23.05;100.00;99953.47;4844478;29;20552;-89
2023/08/23 00:12:59;;;;;;;1.83;1.63;;;;;;;22.91;100.00;99929.16;4855482;29;20124;-89
2023/08/23 00:15:25;;;;;;;1.35;1.25;;;;;;;22.97;100.00;99941.19;4834429;29;20054;-89
2023/08/23 00:17:51;;;;;;;1.25;1.15;;;;;;;23.00;100.00;99959.94;4831971;29;20033;-89
2023/08/23 00:20:16;;;;;;;2.20;1.25;;;;;;;22.83;100.00;99942.31;4853302;29;20041;-90
2023/08/23 00:22:42;;;;;;;1.55;1.45;;;;;;;22.85;100.00;99948.19;4846635;29;20488;-89
2023/08/23 00:25:08;;;;;;;3.58;1.25;;;;;;;22.78;100.00;99941.06;4836321;29;20404;-90
2023/08/23 00:27:33;;;;;;;1.33;1.02;;;;;;;22.84;100.00;99951.56;4854357;29;20144;-89
2023/08/23 00:29:59;;;;;;;1.60;0.98;;;;;;;22.78;100.00;99940.28;4846704;29;20048;-91
2023/08/23 00:32:26;;;;;;;2.15;1.17;;;;;;;22.86;100.00;99946.91;4850606;29;20045;-91
2023/08/23 00:34:51;;;;;;;1.55;1.33;;;;;;;22.74;100.00;99923.59;4856476;29;20063;-92
2023/08/23 00:37:17;;;;;;;1.05;0.98;;;;;;;22.80;100.00;99934.88;4839578;29;20423;-90
2023/08/23 00:39:43;;;;;;;2.05;1.85;;;;;;;22.80;100.00;99926.41;4840326;29;20044;-91
2023/08/23 00:42:09;;;;;;;1.30;1.17;;;;;;;22.79;100.00;99930.50;4825724;29;20044;-92
2023/08/23 00:44:34;;;;;;;0.55;0.55;;;;;;;22.81;100.00;99939.22;4821265;29;20145;-92
2023/08/23 00:47:00;;;;;;;2.75;1.45;;;;;;;22.86;100.00;99946.91;4854090;29;20130;-92
2023/08/23 00:49:26;;;;;;;1.63;1.15;;;;;;;22.82;100.00;99946.44;4839179;29;20132;-90
2023/08/23 00:51:52;;;;;;;1.50;1.40;;;;;;;22.73;100.00;99932.59;4823758;29;20045;-91
2023/08/23 00:54:20;;;;;;;2.13;1.67;;;;;;;22.68;100.00;99936.22;4840362;29;20136;-90
2023/08/23 00:56:46;;;;;;;1.58;1.48;;;;;;;22.61;100.00;99937.53;4835682;29;20182;-90
2023/08/23 00:59:12;;;;;;;1.10;0.85;;;;;;;22.66;100.00;99944.44;4838513;29;20045;-92
2023/08/23 01:01:38;;;;;;;1.73;1.23;;;;;;;22.58;100.00;99938.56;4825041;29;20042;-93
2023/08/23 01:04:03;;;;;;;0.60;0.60;;;;;;;22.60;100.00;99933.19;4839012;29;20052;-91
2023/08/23 01:06:49;;;;;;;6.82;1.58;;;;;;;22.60;100.00;99930.34;4855582;29;20050;-91
2023/08/23 01:09:28;;;;;;;7.30;2.05;;;;;;;22.57;100.00;99939.09;4854568;29;20077;-91
2023/08/23 01:12:03;;;;;;;1.40;1.13;;;;;;;22.49;100.00;99935.28;4840793;29;20508;-90
2023/08/23 01:14:51;;;;;;;3.30;2.10;;;;;;;22.50;100.00;99931.16;4852065;29;20038;-90
2023/08/23 01:17:19;;;;;;;1.65;1.42;;;;;;;22.38;100.00;99921.97;4854848;29;20049;-90
2023/08/23 01:19:46;;;;;;;0.90;0.80;;;;;;;22.36;100.00;99937.94;4854869;29;20449;-90
2023/08/23 01:22:16;;;;;;;1.20;1.08;;;;;;;22.32;100.00;99941.03;4838980;29;20052;-91
2023/08/23 01:24:42;;;;;;;1.75;1.13;;;;;;;22.24;100.00;99929.47;4853694;29;20045;-90
2023/08/23 01:27:07;;;;;;;3.90;1.27;;;;;;;22.22;100.00;99925.66;4839865;29;20037;-91
2023/08/23 01:29:33;;;;;;;1.98;1.58;;;;;;;22.26;100.00;99935.41;4852024;29;20230;-91
2023/08/23 01:32:19;;;;;;;2.08;1.65;;;;;;;22.19;100.00;99935.19;4834206;29;20057;-91
2023/08/23 01:34:50;;;;;;;1.23;1.13;;;;;;;22.20;100.00;99928.25;4865123;29;20072;-90
2023/08/23 01:37:16;;;;;;;1.50;1.40;;;;;;;22.18;100.00;99922.34;4853872;29;20588;-90
2023/08/23 01:39:41;;;;;;;1.55;1.25;;;;;;;22.20;100.00;99937.47;4821228;29;20125;-91
2023/08/23 01:42:09;;;;;;;1.33;1.10;;;;;;;22.14;100.00;99936.72;4846620;29;20136;-91
2023/08/23 01:44:34;;;;;;;2.63;1.45;;;;;;;22.14;100.00;99935.97;4838819;29;20128;-91
2023/08/23 01:47:00;;;;;;;1.38;1.15;;;;;;;22.07;100.00;99925.22;4838918;29;20094;-91
2023/08/23 01:49:25;;;;;;;1.42;1.23;;;;;;;22.04;100.00;99924.16;4838995;29;20504;-91
2023/08/23 01:51:51;;;;;;;2.17;1.75;;;;;;;22.05;100.00;99922.13;4839452;29;20045;-91
2023/08/23 01:54:16;;;;;;;1.35;1.25;;;;;;;22.00;100.00;99918.03;4854069;29;20597;-90
2023/08/23 01:56:43;;;;;;;0.38;0.38;;;;;;;22.08;100.00;99924.66;4854713;29;20616;-90
2023/08/23 01:59:08;;;;;;;1.02;1.00;;;;;;;22.01;100.00;99908.28;4823475;29;20033;-90
2023/08/23 02:01:34;;;;;;;2.03;1.88;;;;;;;22.04;100.00;99921.34;4855368;29;20389;-91
2023/08/23 02:04:00;;;;;;;1.60;1.05;;;;;;;21.92;100.00;99910.63;4842686;29;20240;-91
2023/08/23 02:06:25;;;;;;;1.30;1.20;;;;;;;21.97;100.00;99913.41;4858383;29;20423;-90
2023/08/23 02:08:51;;;;;;;1.15;1.08;;;;;;;21.87;100.00;99903.69;4857624;29;20052;-91
2023/08/23 02:11:16;;;;;;;1.70;1.50;;;;;;;21.93;100.00;99904.44;4843623;29;20053;-91
2023/08/23 02:13:42;;;;;;;0.68;0.68;;;;;;;21.86;100.00;99902.13;4822243;29;20575;-91
2023/08/23 02:16:07;;;;;;;1.30;1.20;;;;;;;21.88;100.00;99905.97;4822263;29;20120;-91
2023/08/23 02:18:33;;;;;;;5.88;1.90;;;;;;;21.93;100.00;99901.63;4809012;29;20046;-91
2023/08/23 02:20:59;;;;;;;1.08;0.98;;;;;;;21.86;100.00;99905.72;4793245;29;20385;-91
2023/08/23 02:23:25;;;;;;;1.50;0.93;;;;;;;21.81;100.00;99908.56;4826551;29;20075;-91
2023/08/23 02:25:51;;;;;;;1.85;1.25;;;;;;;21.74;100.00;99900.63;4808594;29;20038;-91
2023/08/23 02:28:18;;;;;;;2.55;1.58;;;;;;;21.71;100.00;99907.31;4808937;29;20052;-89
2023/08/23 02:30:44;;;;;;;1.13;1.02;;;;;;;21.74;100.00;99900.63;4807953;29;20046;-91
2023/08/23 02:33:10;;;;;;;2.33;1.70;;;;;;;21.72;100.00;99897.53;4829586;29;20570;-90
2023/08/23 02:35:40;;;;;;;1.63;1.40;;;;;;;21.74;100.00;99906.28;4822865;29;20113;-91
2023/08/23 02:38:08;;;;;;;2.50;1.52;;;;;;;21.70;100.00;99886.78;4807932;29;20471;-90
2023/08/23 02:40:34;;;;;;;0.95;0.93;;;;;;;21.68;100.00;99897.81;4824116;29;20102;-90
2023/08/23 02:43:00;;;;;;;2.08;1.58;;;;;;;21.69;100.00;99890.13;4808714;29;20038;-91
2023/08/23 02:45:27;;;;;;;0.75;0.70;;;;;;;21.67;100.00;99895.53;4807747;29;20442;-91
2023/08/23 02:47:52;;;;;;;4.07;1.65;;;;;;;21.62;100.00;99896.31;4803672;29;20512;-91
2023/08/23 02:50:18;;;;;;;1.63;1.02;;;;;;;21.54;100.00;99890.41;4792682;29;20049;-90
2023/08/23 02:52:43;;;;;;;0.47;0.35;;;;;;;21.55;100.00;99896.84;4809346;29;20034;-90
2023/08/23 02:55:09;;;;;;;2.95;1.92;;;;;;;21.48;100.00;99898.09;4839171;29;20465;-91
2023/08/23 02:57:35;;;;;;;1.55;0.82;;;;;;;21.49;100.00;99896.06;4823853;29;20056;-91
2023/08/23 03:00:00;;;;;;;1.38;1.30;;;;;;;21.46;100.00;99902.75;4818597;29;20046;-89
2023/08/23 03:02:26;;;;;;;2.13;1.60;;;;;;;21.51;100.00;99893.50;4793697;29;20106;-90
2023/08/23 03:04:51;;;;;;;1.73;1.17;;;;;;;21.48;100.00;99897.34;4807719;29;20452;-91
2023/08/23 03:07:17;;;;;;;2.38;1.40;;;;;;;21.45;100.00;99889.91;4805710;29;20049;-91
2023/08/23 03:09:42;;;;;;;1.75;1.25;;;;;;;21.38;100.00;99891.97;4819503;29;20050;-90
2023/08/23 03:12:08;;;;;;;1.42;1.27;;;;;;;21.39;100.00;99882.22;4816772;29;20072;-90
2023/08/23 03:14:34;;;;;;;1.55;1.45;;;;;;;21.39;100.00;99887.84;4816151;29;20053;-90
2023/08/23 03:16:59;;;;;;;2.00;1.80;;;;;;;21.38;100.00;99875.06;4805421;29;20046;-91
2023/08/23 03:19:25;;;;;;;1.75;1.48;;;;;;;21.38;100.00;99886.34;4792226;29;20077;-90
2023/08/23 03:21:50;;;;;;;1.23;1.13;;;;;;;21.38;100.00;99883.53;4819421;29;20061;-91
2023/08/23 03:24:16;;;;;;;2.28;2.08;;;;;;;21.32;100.00;99884.78;4804555;29;20106;-91
2023/08/23 03:26:42;;;;;;;2.67;2.10;;;;;;;21.26;100.00;99879.19;4822776;29;20046;-91
2023/08/23 03:29:07;;;;;;;1.33;1.23;;;;;;;21.27;100.00;99879.94;4806450;29;20042;-91
2023/08/23 03:31:33;;;;;;;1.55;1.45;;;;;;;21.25;100.00;99866.34;4810498;29;20101;-91
2023/08/23 03:33:59;;;;;;;0.88;0.88;;;;;;;21.19;100.00;99876.84;4810658;29;20048;-90
2023/08/23 03:36:25;;;;;;;2.13;1.50;;;;;;;21.20;100.00;99874.81;4821905;29;20539;-91
2023/08/23 03:38:51;;;;;;;0.75;0.75;;;;;;;21.25;100.00;99882.50;4805530;29;20069;-91
2023/08/23 03:41:16;;;;;;;1.08;1.00;;;;;;;21.16;100.00;99872.25;4817289;29;20117;-91
2023/08/23 03:43:42;;;;;;;1.45;1.35;;;;;;;21.17;100.00;99873.78;4809024;29;20602;-91
2023/08/23 03:46:08;;;;;;;2.72;2.38;;;;;;;21.15;100.00;99872.78;4795262;29;20060;-91
2023/08/23 03:48:34;;;;;;;2.20;1.80;;;;;;;21.12;100.00;99868.91;4792008;29;20046;-90
2023/08/23 03:50:59;;;;;;;1.58;1.35;;;;;;;21.04;100.00;99853.00;4814049;29;20060;-91
2023/08/23 03:53:26;;;;;;;4.57;1.20;;;;;;;21.15;100.00;99867.13;4793721;29;20143;-91
2023/08/23 03:55:53;;;;;;;1.05;0.98;;;;;;;21.16;100.00;99875.06;4796333;29;20489;-91
2023/08/23 03:58:20;;;;;;;3.00;1.45;;;;;;;21.10;100.00;99867.88;4819597;29;20038;-92
2023/08/23 04:00:51;;;;;;;1.58;1.38;;;;;;;21.11;100.00;99870.16;4806208;29;20050;-90
2023/08/23 04:03:16;;;;;;;1.70;1.13;;;;;;;21.11;100.00;99878.63;4822303;29;20062;-90
2023/08/23 04:05:42;;;;;;;0.57;0.57;;;;;;;21.09;100.00;99869.16;4806852;29;20038;-91
2023/08/23 04:08:10;;;;;;;3.55;1.67;;;;;;;21.07;100.00;99872.47;4821619;29;20046;-90
2023/08/23 04:10:36;;;;;;;1.50;1.13;;;;;;;21.02;100.00;99862.00;4796867;29;20094;-91
2023/08/23 04:13:02;;;;;;;1.48;0.85;;;;;;;21.02;100.00;99869.66;4825627;29;20094;-90
2023/08/23 04:15:27;;;;;;;1.63;1.52;;;;;;;20.99;100.00;99868.63;4839069;29;20049;-91
2023/08/23 04:17:53;;;;;;;2.97;1.58;;;;;;;20.99;100.00;99865.81;4827047;29;20581;-89
2023/08/23 04:20:19;;;;;;;1.05;1.00;;;;;;;20.99;100.00;99871.44;4859922;29;20046;-91
2023/08/23 04:22:44;;;;;;;2.00;1.85;;;;;;;20.94;100.00;99872.25;4854512;29;20061;-89
2023/08/23 04:25:11;;;;;;;1.00;0.95;;;;;;;20.98;100.00;99875.56;4823323;29;20511;-90
2023/08/23 04:27:37;;;;;;;1.48;1.35;;;;;;;20.97;100.00;99874.03;4836420;29;20077;-91
2023/08/23 04:30:06;;;;;;;36.72;1.55;;;;;;;20.89;100.00;99862.50;4824838;29;20484;-90
2023/08/23 04:32:32;;;;;;;2.40;2.20;;;;;;;20.95;100.00;99865.28;4839305;29;20034;-92
2023/08/23 04:34:58;;;;;;;1.27;1.05;;;;;;;20.87;100.00;99867.88;4823040;29;20041;-91
2023/08/23 04:37:24;;;;;;;1.65;1.25;;;;;;;20.96;100.00;99864.03;4850860;29;20053;-91
2023/08/23 04:39:50;;;;;;;1.88;1.48;;;;;;;21.01;100.00;99885.03;4820066;29;20408;-91
2023/08/23 04:42:15;;;;;;;1.60;1.50;;;;;;;21.02;100.00;99890.19;4843428;29;20511;-90
2023/08/23 04:44:41;;;;;;;1.85;1.75;;;;;;;21.00;100.00;99875.81;4843699;29;20049;-90
2023/08/23 04:47:06;;;;;;;1.13;1.02;;;;;;;21.10;100.00;99881.97;4824721;29;20419;-92
2023/08/23 04:49:33;;;;;;;1.00;0.98;;;;;;;21.13;100.00;99895.84;4838217;29;20055;-90
2023/08/23 04:51:58;;;;;;;1.63;1.52;;;;;;;21.11;100.00;99875.81;4832834;29;20158;-90
2023/08/23 04:54:24;;;;;;;0.73;0.73;;;;;;;21.23;100.00;99883.00;4839704;29;20535;-90
2023/08/23 04:56:50;;;;;;;3.20;2.00;;;;;;;21.25;100.00;99882.50;4839764;29;20190;-91
2023/08/23 04:59:22;;;;;;;0.70;0.70;;;;;;;21.38;100.00;99891.22;4844808;29;20053;-89
2023/08/23 05:01:48;;;;;;;1.70;1.55;;;;;;;21.49;100.00;99899.66;4838223;29;20077;-91
2023/08/23 05:04:14;;;;;;;1.55;1.45;;;;;;;21.49;100.00;99879.13;4839499;29;20515;-90
2023/08/23 05:06:40;;;;;;;4.15;1.98;;;;;;;21.62;100.00;99890.66;4840521;29;20056;-91
2023/08/23 05:09:05;;;;;;;1.98;1.80;;;;;;;21.64;100.00;99882.41;4839155;29;20652;-91
2023/08/23 05:11:31;;;;;;;1.17;0.90;;;;;;;21.84;100.00;99890.56;4839976;29;20042;-91
2023/08/23 05:13:57;;;;;;;2.50;1.88;;;;;;;21.95;100.00;99890.59;4824148;29;20579;-91
2023/08/23 05:16:23;;;;;;;1.30;1.20;;;;;;;22.18;100.00;99908.19;4839740;29;20053;-93
2023/08/23 05:18:49;;;;;;;2.00;1.52;;;;;;;22.25;100.00;99883.00;4835561;29;20037;-92
2023/08/23 05:21:15;;;;;;;1.65;1.48;;;;;;;22.54;100.00;99909.03;4848460;29;20714;-92
2023/08/23 05:23:40;;;;;;;2.90;2.20;;;;;;;22.67;100.00;99900.75;4834006;29;20065;-91
2023/08/23 05:26:06;;;;;;;1.63;1.52;;;;;;;22.89;100.00;99911.91;4844724;29;20572;-90
2023/08/23 05:28:32;;;;;;;1.98;1.33;;;;;;;22.99;100.00;99906.72;4845108;29;20579;-90
2023/08/23 05:30:58;;;;;;;2.05;1.60;;;;;;;23.18;100.00;99911.19;4839880;29;20045;-91
2023/08/23 05:33:27;;;;;;;4.97;1.50;;;;;;;23.38;100.00;99912.03;4836952;29;20124;-92
2023/08/23 05:35:52;;;;;;;1.45;1.35;;;;;;;23.57;100.00;99915.75;4835367;29;20050;-90
2023/08/23 05:38:20;;;;;;;2.40;1.70;;;;;;;23.79;100.00;99912.69;4824905;29;20099;-90
2023/08/23 05:40:47;;;;;;;2.42;2.22;;;;;;;24.00;100.00;99922.25;4859094;29;20045;-91
2023/08/23 05:43:13;;;;;;;0.90;0.82;;;;;;;24.21;100.00;99924.59;4840629;29;20052;-92
2023/08/23 05:45:39;;;;;;;2.22;1.83;;;;;;;24.25;100.00;99922.22;4823901;29;20049;-91
2023/08/23 05:48:05;;;;;;;1.05;1.05;;;;;;;24.30;100.00;99910.06;4841149;29;20049;-90
2023/08/23 05:50:30;;;;;;;2.55;1.88;;;;;;;24.45;100.00;99913.19;4836782;29;20054;-91
2023/08/23 05:52:56;;;;;;;2.40;2.20;;;;;;;24.71;100.00;99923.94;4853645;29;20061;-91
2023/08/23 05:55:22;;;;;;;0.82;0.82;;;;;;;24.86;100.00;99922.19;4856303;29;20049;-92
2023/08/23 05:57:47;;;;;;;1.38;1.30;;;;;;;25.17;100.00;99922.72;4857025;29;20114;-90
2023/08/23 06:00:14;;;;;;;2.95;1.92;;;;;;;25.29;100.00;99918.38;4856784;29;20086;-91
2023/08/23 06:02:41;;;;;;;1.83;1.73;;;;;;;25.53;100.00;99923.94;4825501;29;20136;-91
2023/08/23 06:05:07;;;;;;;1.50;1.10;;;;;;;25.76;100.00;99912.94;4857577;29;20144;-91
2023/08/23 06:07:32;;;;;;;1.65;1.30;;;;;;;25.85;100.00;99901.88;4826951;29;20037;-91
2023/08/23 06:09:58;;;;;;;3.33;1.92;;;;;;;26.04;100.00;99898.94;4858428;29;20045;-91
2023/08/23 06:12:27;;;;;;;1.38;1.27;;;;;;;26.32;100.00;99906.91;4822653;29;20347;-91
2023/08/23 06:14:55;;;;;;;1.90;1.67;;;;;;;26.46;100.00;99914.09;4853107;29;20050;-92
2023/08/23 06:17:21;;;;;;;2.40;1.58;;;;;;;26.59;100.00;99914.06;4840468;29;20064;-91
2023/08/23 06:19:46;;;;;;;6.78;2.88;;;;;;;26.75;100.00;99912.91;4857017;29;20504;-91
2023/08/23 06:22:12;;;;;;;1.88;1.58;;;;;;;26.51;100.00;99918.91;4840750;29;20049;-91
2023/08/23 06:24:37;;;;;;;1.52;1.42;;;;;;;26.48;100.00;99931.38;4857533;29;20519;-91
2023/08/23 06:27:03;;;;;;;1.48;1.38;;;;;;;26.36;100.00;99936.53;4858028;29;20057;-90
2023/08/23 06:29:29;;;;;;;3.33;1.42;;;;;;;26.40;100.00;99922.00;4873839;29;20492;-92
2023/08/23 06:31:54;;;;;;;2.15;1.75;;;;;;;26.43;100.00;99932.25;4855137;29;20074;-91
2023/08/23 06:34:20;;;;;;;2.53;2.00;;;;;;;26.57;100.00;99927.31;4841127;29;20481;-92
2023/08/23 06:36:45;;;;;;;3.72;1.50;;;;;;;26.84;100.00;99935.25;4835225;29;20449;-90
2023/08/23 06:39:11;;;;;;;2.97;1.60;;;;;;;27.14;100.00;99937.63;4856697;29;20054;-91
2023/08/23 06:41:37;;;;;;;1.55;1.33;;;;;;;27.35;100.00;99941.25;4857461;29;20477;-91
2023/08/23 06:44:03;;;;;;;1.35;1.13;;;;;;;27.69;100.00;99951.81;4839742;29;20055;-91
2023/08/23 06:46:29;;;;;;;1.55;1.38;;;;;;;27.73;100.00;99941.59;4841926;29;20045;-91
2023/08/23 06:48:55;;;;;;;1.90;1.73;;;;;;;27.83;100.00;99945.44;4825243;29;20052;-91
2023/08/23 06:51:21;;;;;;;1.88;1.45;;;;;;;27.83;100.00;99954.00;4856667;29;20044;-91
2023/08/23 06:53:47;;;;;;;2.13;1.42;;;;;;;27.95;100.00;99945.91;4842903;29;20065;-90
2023/08/23 06:56:13;;;;;;;1.83;1.55;;;;;;;28.17;100.00;99950.25;4855962;29;20048;-90
2023/08/23 06:58:39;;;;;;;2.30;2.00;;;;;;;28.48;100.00;99954.78;4830075;29;20045;-91
2023/08/23 07:01:07;;;;;;;3.25;2.03;;;;;;;28.62;100.00;99955.41;4831023;29;20569;-91
2023/08/23 07:03:32;;;;;;;5.75;1.83;;;;;;;28.85;100.00;99961.22;4856500;29;20053;-91
2023/08/23 07:05:58;;;;;;;1.73;1.35;;;;;;;29.02;100.00;99972.88;4856760;29;20054;-91
2023/08/23 07:08:24;;;;;;;2.55;1.73;;;;;;;29.10;100.00;99976.53;4841545;29;20060;-92
2023/08/23 07:10:50;;;;;;;2.00;1.80;;;;;;;29.32;100.00;99969.38;4840934;29;20548;-91
2023/08/23 07:13:16;;;;;;;2.38;1.60;;;;;;;29.42;100.00;99971.09;4842198;29;20054;-91
2023/08/23 07:15:41;;;;;;;2.13;1.27;;;;;;;29.76;100.00;99978.53;4856817;29;20076;-91
2023/08/23 07:18:10;;;;;;;1.23;1.10;;;;;;;30.03;96.29;99951.81;4838009;29;20488;-91
2023/08/23 07:20:36;;;;;;;1.77;1.50;;;;;;;30.55;92.50;99970.19;4834125;29;20132;-90
2023/08/23 07:23:02;;;;;;;2.65;1.27;;;;;;;30.66;89.89;99965.38;4824813;29;20466;-91
2023/08/23 07:25:28;;;;;;;1.42;1.23;;;;;;;30.84;89.43;99964.16;4839788;29;20056;-92
2023/08/23 07:27:54;;;;;;;1.92;1.67;;;;;;;30.97;89.64;99961.03;4840944;29;20041;-91
2023/08/23 07:30:19;;;;;;;1.75;1.65;;;;;;;31.11;87.27;99950.06;4825462;29;20045;-91
2023/08/23 07:32:45;;;;;;;1.77;1.13;;;;;;;31.24;87.20;99949.78;4840035;29;20539;-91
2023/08/23 07:35:10;;;;;;;1.48;1.38;;;;;;;31.50;83.57;99951.34;4840236;29;20045;-91
2023/08/23 07:37:36;;;;;;;2.72;1.92;;;;;;;31.83;80.65;99949.91;4871214;29;20053;-91
2023/08/23 07:40:04;;;;;;;1.10;1.05;;;;;;;32.07;78.34;99949.06;4858029;29;20086;-92
2023/08/23 07:42:29;;;;;;;1.60;1.50;;;;;;;31.63;80.94;99951.03;4842389;29;20053;-91
2023/08/23 07:44:55;;;;;;;1.63;1.52;;;;;;;31.58;81.85;99963.53;4855142;29;20539;-91
2023/08/23 07:47:21;;;;;;;12.57;2.90;;;;;;;31.67;81.21;99952.16;4824795;29;20518;-91
2023/08/23 07:49:46;;;;;;;1.38;1.27;;;;;;;31.96;78.42;99949.59;4855109;29;20510;-92
2023/08/23 07:52:12;;;;;;;2.95;1.98;;;;;;;32.25;77.77;99956.38;4855825;29;20118;-91
2023/08/23 07:54:38;;;;;;;1.65;1.55;;;;;;;32.60;73.80;99953.47;4837702;29;20454;-92
2023/08/23 07:57:04;;;;;;;1.70;1.55;;;;;;;33.05;74.68;99952.88;4848254;29;20053;-91
2023/08/23 07:59:29;;;;;;;1.35;1.25;;;;;;;33.12;72.43;99954.88;4849072;29;20037;-92
2023/08/23 08:01:55;;;;;;;1.95;1.45;;;;;;;33.26;71.57;99947.41;4839672;29;20041;-92
2023/08/23 08:04:20;;;;;;;2.42;1.73;;;;;;;33.28;70.70;99947.56;4840098;29;20050;-93
2023/08/23 08:06:46;;;;;;;2.40;2.20;;;;;;;33.26;70.21;99958.16;4840644;29;20503;-92
2023/08/23 08:09:11;;;;;;;1.15;0.90;;;;;;;33.48;68.70;99959.16;4824921;29;20059;-91
2023/08/23 08:11:37;;;;;;;1.58;1.48;;;;;;;33.31;68.82;99959.25;4840638;29;20034;-92
2023/08/23 08:14:02;;;;;;;1.45;1.35;;;;;;;33.68;69.17;99957.91;4855140;29;20056;-91
2023/08/23 08:16:28;;;;;;;2.25;2.03;;;;;;;33.83;71.23;99957.63;4825420;29;20531;-92
2023/08/23 08:18:53;;;;;;;4.00;2.05;;;;;;;33.90;62.23;99964.59;4855372;29;20061;-92
2023/08/23 08:21:19;;;;;;;1.70;1.60;;;;;;;33.89;59.78;99960.22;4839941;29;20033;-91
2023/08/23 08:23:48;;;;;;;1.90;1.70;;;;;;;33.48;58.83;99973.53;4831552;29;20508;-93
2023/08/23 08:26:14;;;;;;;1.10;1.00;;;;;;;33.20;63.37;99978.53;4854492;29;20045;-92
2023/08/23 08:28:43;;;;;;;1.42;1.33;;;;;;;33.29;59.99;99974.97;4841938;29;20050;-92
2023/08/23 08:31:10;;;;;;;2.08;1.25;;;;;;;33.10;56.51;99974.84;4850209;29;20057;-93
2023/08/23 08:33:37;;;;;;;2.22;1.55;;;;;;;32.78;58.86;99975.09;4845973;29;20496;-92
2023/08/23 08:36:04;;;;;;;2.00;1.80;;;;;;;32.89;57.45;99962.31;4835820;29;20032;-93
2023/08/23 08:38:29;;;;;;;2.17;1.48;;;;;;;32.87;59.42;99957.19;4839882;29;20042;-93
2023/08/23 08:40:55;;;;;;;1.92;1.83;;;;;;;33.15;59.84;99967.34;4824197;29;20472;-92
2023/08/23 08:43:20;;;;;;;1.08;1.08;;;;;;;33.29;59.52;99966.34;4840313;29;20530;-92
2023/08/23 08:45:46;;;;;;;2.22;2.03;;;;;;;33.66;58.03;99969.22;4839990;29;20049;-94
2023/08/23 08:48:11;;;;;;;2.20;1.20;;;;;;;33.92;56.27;99968.41;4840089;29;20040;-91
2023/08/23 08:50:37;;;;;;;1.50;1.40;;;;;;;33.77;55.96;99979.41;4835421;29;20034;-92
2023/08/23 08:53:07;;;;;;;2.10;1.30;;;;;;;33.52;55.02;99988.25;4821873;29;20064;-93
2023/08/23 08:55:32;;;;;;;1.23;1.02;;;;;;;33.85;55.19;99988.69;4834353;29;20046;-92
2023/08/23 08:57:58;;;;;;;1.55;1.45;;;;;;;33.67;55.71;99985.13;4824060;29;20049;-92
2023/08/23 09:00:27;;;;;;;3.08;1.23;;;;;;;33.81;58.61;100002.75;4840587;29;20041;-93
2023/08/23 09:02:54;;;;;;;1.40;1.17;;;;;;;33.91;59.72;99998.53;4870838;29;20044;-92
2023/08/23 09:05:20;;;;;;;2.00;1.58;;;;;;;33.76;58.09;100012.41;4839055;29;20101;-93
2023/08/23 09:07:46;;;;;;;2.25;1.83;;;;;;;33.30;60.54;100013.09;4839335;29;20050;-93
2023/08/23 09:10:12;;;;;;;1.67;1.52;;;;;;;33.25;59.75;100020.63;4837796;29;20030;-93
2023/08/23 09:12:37;;;;;;;2.60;1.85;;;;;;;32.87;58.06;100022.50;4844442;29;20080;-93
2023/08/23 09:15:07;;;;;;;1.77;1.65;;;;;;;32.95;59.02;100018.16;4842595;29;20057;-91
2023/08/23 09:17:34;;;;;;;1.80;1.50;;;;;;;32.84;60.08;100007.94;4855516;29;20049;-93
2023/08/23 09:20:03;;;;;;;1.33;1.23;;;;;;;32.74;60.99;99994.88;4823145;29;20416;-93
2023/08/23 09:22:30;;;;;;;2.55;2.30;;;;;;;32.69;64.71;99993.00;4837821;29;20149;-92
2023/08/23 09:24:55;;;;;;;3.30;2.05;;;;;;;32.56;65.30;99981.84;4852921;29;20129;-93
2023/08/23 09:27:22;;;;;;;2.00;1.67;;;;;;;32.59;66.39;99980.69;4838840;29;20046;-93
2023/08/23 09:29:48;;;;;;;1.38;1.27;;;;;;;32.74;65.35;99980.50;4836814;29;20506;-93
2023/08/23 09:32:13;;;;;;;8.55;2.58;;;;;;;32.69;66.34;99996.66;4821126;29;20136;-93
2023/08/23 09:34:39;;;;;;;1.67;1.35;;;;;;;32.74;65.75;99977.66;4836713;29;20131;-94
2023/08/23 09:37:08;;;;;;;2.65;1.48;;;;;;;32.76;65.68;99972.81;4839380;29;20095;-94
2023/08/23 09:39:34;;;;;;;2.53;1.70;;;;;;;32.74;61.19;99980.50;4853753;29;20054;-92
2023/08/23 09:42:04;;;;;;;1.83;1.25;;;;;;;32.54;59.68;99984.56;4839461;29;20053;-94
2023/08/23 09:44:30;;;;;;;2.42;2.10;;;;;;;32.31;60.18;99988.44;4840069;29;20045;-94
2023/08/23 09:47:00;;;;;;;1.30;1.20;;;;;;;32.34;61.08;99995.91;4835816;29;20054;-92
2023/08/23 09:49:34;;;;;;;1.55;1.30;;;;;;;32.25;59.87;99979.34;4842122;29;20058;-93
2023/08/23 09:52:00;;;;;;;2.28;2.08;;;;;;;32.26;62.26;99982.97;4839242;29;20041;-94
2023/08/23 09:55:03;;;;;;;1.90;1.75;;;;;;;31.87;65.18;99964.56;4835748;29;20050;-92
2023/08/23 09:57:29;;;;;;;1.88;1.40;;;;;;;32.29;66.85;99976.03;4852075;29;20081;-93
2023/08/23 09:59:56;;;;;;;1.73;1.63;;;;;;;31.91;63.00;99982.13;4823392;29;20053;-93
2023/08/23 10:02:22;;;;;;;1.60;1.50;;;;;;;31.91;64.95;99982.91;4854439;29;20058;-92
2023/08/23 10:04:48;;;;;;;2.33;1.70;;;;;;;31.87;64.46;99999.00;4854018;29;20041;-91
2023/08/23 10:07:16;;;;;;;1.38;1.27;;;;;;;31.78;64.43;99991.06;4834068;29;20516;-93
2023/08/23 10:09:41;;;;;;;1.48;1.10;;;;;;;31.68;66.34;99993.06;4849235;29;20037;-91
2023/08/23 10:12:11;;;;;;;1.58;1.48;;;;;;;31.70;68.10;99993.25;4858828;29;20049;-93
2023/08/23 10:14:42;;;;;;;1.60;1.30;;;;;;;31.68;71.57;99999.56;4805152;29;20078;-93
2023/08/23 10:17:09;;;;;;;3.13;1.92;;;;;;;31.97;70.37;99994.13;4798625;29;20570;-94
2023/08/23 10:19:35;;;;;;;2.05;1.63;;;;;;;32.15;70.19;100000.69;4812311;29;20559;-92
2023/08/23 10:22:00;;;;;;;1.55;1.45;;;;;;;32.22;63.12;99992.00;4813312;29;20050;-92
2023/08/23 10:24:31;;;;;;;2.42;1.60;;;;;;;32.10;64.13;99999.59;4817626;29;20049;-93
2023/08/23 10:27:04;;;;;;;1.08;1.08;;;;;;;31.91;65.42;99993.59;4831585;29;20118;-93
2023/08/23 10:29:30;;;;;;;2.80;1.77;;;;;;;32.06;64.78;100004.97;4805991;29;20053;-93
2023/08/23 10:31:57;;;;;;;1.58;1.10;;;;;;;32.17;64.67;99998.75;4810056;29;20044;-92
2023/08/23 10:34:26;;;;;;;1.17;1.08;;;;;;;32.31;64.91;99997.06;4808982;29;20054;-92
2023/08/23 10:36:53;;;;;;;1.48;1.38;;;;;;;32.39;64.73;99989.13;4807799;29;20100;-93
2023/08/23 10:39:23;;;;;;;2.58;0.95;;;;;;;32.50;58.10;100001.47;4813762;29;20045;-92
2023/08/23 10:41:51;;;;;;;1.60;1.50;;;;;;;32.49;59.07;99983.47;4807226;29;20065;-92
2023/08/23 10:44:17;;;;;;;1.88;1.52;;;;;;;32.66;57.73;99979.84;4822075;29;20142;-92
2023/08/23 10:46:44;;;;;;;2.28;1.83;;;;;;;32.83;56.70;99999.94;4808230;29;20050;-93
2023/08/23 10:49:12;;;;;;;1.08;0.98;;;;;;;32.62;58.17;99996.75;4807202;29;20053;-93
2023/08/23 10:51:41;;;;;;;3.13;2.45;;;;;;;32.70;56.52;99977.31;4822735;29;20057;-92
2023/08/23 10:54:10;;;;;;;1.52;1.17;;;;;;;32.84;56.26;99981.31;4807194;29;20061;-93
2023/08/23 10:56:35;;;;;;;1.17;1.08;;;;;;;32.83;56.36;99971.22;4811965;29;20170;-92
2023/08/23 10:59:01;;;;;;;1.33;1.10;;;;;;;33.14;54.39;99972.31;4808449;29;20062;-92
2023/08/23 11:01:27;;;;;;;1.67;1.52;;;;;;;33.24;53.62;99976.00;4834628;29;20051;-93
2023/08/23 11:03:53;;;;;;;1.85;1.63;;;;;;;33.32;51.84;99969.38;4823128;29;20480;-92
2023/08/23 11:06:18;;;;;;;1.08;0.95;;;;;;;33.26;53.11;99981.16;4808371;29;20053;-92
2023/08/23 11:08:47;;;;;;;2.60;2.05;;;;;;;33.13;54.13;99979.41;4800183;29;20100;-92
2023/08/23 11:11:15;;;;;;;2.05;1.70;;;;;;;32.96;53.86;99964.34;4846581;29;20057;-92
2023/08/23 11:13:40;;;;;;;1.30;1.13;;;;;;;33.24;53.98;99981.00;4837324;29;20049;-93
2023/08/23 11:16:06;;;;;;;1.33;1.23;;;;;;;33.13;55.13;99973.66;4857602;29;20415;-91
2023/08/23 11:18:31;;;;;;;1.15;1.08;;;;;;;33.34;56.44;99975.28;4858004;29;20041;-92
2023/08/23 11:20:58;;;;;;;1.00;0.90;;;;;;;33.35;50.08;99968.94;4840697;29;20046;-92
2023/08/23 11:23:23;;;;;;;2.53;1.20;;;;;;;33.01;51.47;99974.78;4856858;29;20041;-92